Wyoming Mesonet
Water Resources Data System and State Climate Office


SEO WACNet, UW USACE UMRB, USDA-ARS, BLM

Sheridan (SHMW4)


Snow Stake

Air Temperatures (F)

Precipitation (inches)


Snow Depth (in)

Frost Depth


Wind Speed (mph)

Wind Direction (Degrees)


Humidity (%)

Solar Radiation (watts per square meter)


Sea-Level Pressure (in Hg)


Soil Temperature

Soil Temperature


Soil Moisture

Soil Moisture

Wind Soil
Temp Precip Speed Dir Gust Dir Humidity Pressure Solar Snow Temperature (Deg F) Moisture (%)
Date Time (MST) (F) (in) (mph) (deg) (mph) (deg) (%) (Mbars) (w/m^2) (in) 5cm 10cm 20cm 50cm 1m 5cm 10cm 20cm 50cm 1m
2024-06-17 06:00:00 49.24 0.00 13.77 312 22.48 306 51.4 876.1 221.4 -0.0 61.16 63.50 64.76 60.26 55.94 11.9% 18.1% 22.6% 15.3% 28.6%
2024-06-17 07:00:00 56.97 0.00 17.32 306 30.69 307 41.1 875.0 387.7 0.0 60.80 62.96 64.40 60.26 55.94 11.7% 17.8% 22.8% 15.3% 28.6%
2024-06-17 08:00:00 64.15 0.00 21.32 322 34.29 311 38.1 873.9 489.4 0.0 60.80 62.60 64.22 60.26 55.94 11.5% 18.0% 23.0% 15.3% 28.6%
2024-06-17 09:00:00 69.03 0.00 23.78 337 36.89 337 35.5 872.6 716.6 -0.0 62.06 62.96 64.22 60.26 55.94 12.2% 18.0% 23.0% 15.3% 28.6%
2024-06-17 10:00:00 72.03 0.00 20.76 331 34.65 334 33.8 871.8 841.0 -0.0 63.50 63.14 63.86 60.26 55.94 12.0% 18.1% 22.5% 15.3% 28.6%
2024-06-17 11:00:00 73.74 0.00 16.70 323 32.93 306 34.2 871.0 891.0 -0.2 65.48 64.22 63.50 60.26 55.94 12.2% 17.9% 22.7% 15.3% 28.6%
2024-06-17 12:00:00 76.89 0.00 14.13 325 27.58 328 32.4 870.0 1014.0 -0.0 67.46 65.12 63.50 60.26 55.94 12.1% 18.3% 22.7% 15.5% 28.6%
2024-06-17 13:00:00 78.49 0.00 8.52 310 24.47 297 31.9 869.3 898.0 -0.0 69.62 66.38 63.50 60.26 55.94 12.5% 18.4% 22.7% 15.1% 28.6%
2024-06-17 14:00:00 72.19 0.00 19.01 128 31.29 114 39.6 869.2 367.6 -0.1 71.78 67.82 63.50 60.26 55.94 12.6% 18.4% 22.7% 15.1% 28.6%
2024-06-17 15:00:00 69.39 0.00 15.89 145 30.69 122 37.2 870.3 271.1 0.0 72.68 69.26 63.50 60.26 55.94 12.7% 18.7% 22.7% 15.1% 27.9%
2024-06-17 16:00:00 66.88 0.00 21.25 159 33.29 163 37.9 871.7 707.9 0.0 72.32 69.62 63.86 60.26 55.94 12.4% 18.5% 22.5% 15.2% 27.9%
2024-06-17 17:00:00 65.23 0.00 18.45 154 29.57 177 39.2 873.2 460.2 0.0 71.42 69.26 64.22 60.26 56.12 12.6% 18.5% 22.8% 15.2% 28.6%
2024-06-17 18:00:00 58.59 0.00 7.92 144 33.42 155 62.2 874.8 16.2 -0.0 70.70 68.90 64.40 60.26 56.12 12.3% 18.2% 22.8% 15.2% 28.3%
2024-06-17 19:00:00 56.16 0.00 7.64 159 18.50 167 74.1 874.2 78.0 0.0 69.98 68.18 64.40 60.26 56.12 12.5% 18.4% 22.8% 15.2% 28.6%
2024-06-17 20:00:00 55.87 0.00 4.61 133 8.08 152 73.8 874.9 0.0 0.0 68.90 67.82 64.76 60.26 56.12 12.2% 18.6% 22.6% 15.1% 28.6%
2024-06-17 21:00:00 53.02 0.00 12.45 136 20.62 124 77.2 877.0 0.0 0.0 67.82 67.10 64.76 60.26 56.12 12.1% 18.2% 22.6% 15.1% 28.6%
2024-06-17 22:00:00 49.93 0.02 5.40 144 18.01 114 88.6 877.8 0.0 0.0 66.74 66.38 64.76 60.26 56.12 12.3% 17.9% 23.2% 15.1% 28.6%
2024-06-17 23:00:00 49.01 0.09 5.31 116 12.17 162 94.6 878.2 0.0 0.0 66.02 65.84 64.76 60.26 56.12 12.0% 18.1% 22.6% 15.1% 28.6%
2024-06-18 00:00:00 49.57 0.03 4.70 209 7.21 117 93.7 876.6 0.0 0.0 65.12 65.48 64.76 60.26 56.12 12.2% 18.3% 22.8% 15.5% 28.6%
2024-06-18 01:00:00 48.87 0.00 6.36 150 10.68 133 94.2 877.9 0.0 -0.0 64.22 64.76 64.76 60.26 56.12 12.1% 17.9% 22.8% 15.1% 28.6%
2024-06-18 02:00:00 47.25 0.00 14.58 175 21.00 151 88.7 879.0 0.0 -0.0 63.50 64.22 64.40 60.26 56.12 12.3% 18.1% 22.8% 15.5% 28.6%
2024-06-18 03:00:00 44.04 0.00 12.60 163 22.86 151 87.3 879.9 0.0 -0.1 62.60 63.50 64.40 60.26 56.12 12.0% 18.3% 22.8% 15.3% 28.6%
2024-06-18 04:00:00 40.15 0.00 4.96 22 23.98 157 89.3 880.9 0.0 0.0 61.70 62.96 64.22 60.26 56.12 11.8% 18.0% 22.8% 15.3% 28.6%
2024-06-18 05:00:00 42.43 0.00 6.05 104 14.04 130 82.1 882.0 10.9 0.0 60.80 62.24 63.86 60.26 56.12 11.7% 18.2% 22.8% 15.3% 28.6%